sensor_id;sensor_type;location;lat;lon;timestamp;P1;durP1;ratioP1;P2;durP2;ratioP2
14209;SDS011;7188;56.070;12.698;2023-05-25T00:01:18;14.20;;;5.13;;
14209;SDS011;7188;56.070;12.698;2023-05-25T00:03:44;15.10;;;4.10;;
14209;SDS011;7188;56.070;12.698;2023-05-25T00:06:10;11.47;;;4.07;;
14209;SDS011;7188;56.070;12.698;2023-05-25T00:08:37;7.47;;;3.77;;
14209;SDS011;7188;56.070;12.698;2023-05-25T00:11:04;11.43;;;3.87;;
14209;SDS011;7188;56.070;12.698;2023-05-25T00:13:30;12.30;;;3.73;;
14209;SDS011;7188;56.070;12.698;2023-05-25T00:15:56;10.77;;;3.70;;
14209;SDS011;7188;56.070;12.698;2023-05-25T00:18:21;11.97;;;3.70;;
14209;SDS011;7188;56.070;12.698;2023-05-25T00:20:49;8.60;;;3.47;;
14209;SDS011;7188;56.070;12.698;2023-05-25T00:23:18;11.70;;;3.73;;
14209;SDS011;7188;56.070;12.698;2023-05-25T00:25:44;14.80;;;3.43;;
14209;SDS011;7188;56.070;12.698;2023-05-25T00:28:10;11.53;;;3.10;;
14209;SDS011;7188;56.070;12.698;2023-05-25T00:30:36;13.43;;;3.70;;
14209;SDS011;7188;56.070;12.698;2023-05-25T00:33:02;7.97;;;3.20;;
14209;SDS011;7188;56.070;12.698;2023-05-25T00:35:28;10.03;;;2.77;;
14209;SDS011;7188;56.070;12.698;2023-05-25T00:37:53;10.33;;;3.30;;
14209;SDS011;7188;56.070;12.698;2023-05-25T00:40:19;11.97;;;4.23;;
14209;SDS011;7188;56.070;12.698;2023-05-25T00:42:45;16.03;;;3.50;;
14209;SDS011;7188;56.070;12.698;2023-05-25T00:45:11;13.57;;;3.67;;
14209;SDS011;7188;56.070;12.698;2023-05-25T00:47:38;13.13;;;2.87;;
14209;SDS011;7188;56.070;12.698;2023-05-25T00:50:04;10.87;;;3.07;;
14209;SDS011;7188;56.070;12.698;2023-05-25T00:52:33;12.07;;;2.70;;
14209;SDS011;7188;56.070;12.698;2023-05-25T00:54:59;4.17;;;2.63;;
14209;SDS011;7188;56.070;12.698;2023-05-25T00:57:26;7.60;;;2.33;;
14209;SDS011;7188;56.070;12.698;2023-05-25T00:59:57;9.57;;;3.23;;
14209;SDS011;7188;56.070;12.698;2023-05-25T01:02:26;10.63;;;3.10;;
14209;SDS011;7188;56.070;12.698;2023-05-25T01:04:53;11.00;;;3.53;;
14209;SDS011;7188;56.070;12.698;2023-05-25T01:07:23;8.77;;;2.87;;
14209;SDS011;7188;56.070;12.698;2023-05-25T01:10:00;7.37;;;2.67;;
14209;SDS011;7188;56.070;12.698;2023-05-25T01:12:29;12.27;;;3.57;;
14209;SDS011;7188;56.070;12.698;2023-05-25T01:17:57;7.03;;;2.93;;
14209;SDS011;7188;56.070;12.698;2023-05-25T01:20:26;8.20;;;2.57;;
14209;SDS011;7188;56.070;12.698;2023-05-25T01:22:54;9.20;;;2.87;;
14209;SDS011;7188;56.070;12.698;2023-05-25T01:25:25;10.13;;;3.47;;
14209;SDS011;7188;56.070;12.698;2023-05-25T01:28:14;10.83;;;3.57;;
14209;SDS011;7188;56.070;12.698;2023-05-25T01:30:46;10.87;;;2.90;;
14209;SDS011;7188;56.070;12.698;2023-05-25T01:33:14;9.20;;;3.27;;
14209;SDS011;7188;56.070;12.698;2023-05-25T01:35:44;5.90;;;2.63;;
14209;SDS011;7188;56.070;12.698;2023-05-25T01:38:11;14.20;;;3.30;;
14209;SDS011;7188;56.070;12.698;2023-05-25T01:40:37;9.03;;;3.53;;
14209;SDS011;7188;56.070;12.698;2023-05-25T01:43:03;9.13;;;2.93;;
14209;SDS011;7188;56.070;12.698;2023-05-25T01:45:30;13.27;;;3.63;;
14209;SDS011;7188;56.070;12.698;2023-05-25T01:53:55;11.23;;;4.17;;
14209;SDS011;7188;56.070;12.698;2023-05-25T01:56:24;15.00;;;4.37;;
14209;SDS011;7188;56.070;12.698;2023-05-25T01:58:55;16.40;;;4.07;;
14209;SDS011;7188;56.070;12.698;2023-05-25T02:01:25;14.53;;;4.53;;
14209;SDS011;7188;56.070;12.698;2023-05-25T02:03:53;11.83;;;4.13;;
14209;SDS011;7188;56.070;12.698;2023-05-25T02:06:18;11.20;;;3.90;;
14209;SDS011;7188;56.070;12.698;2023-05-25T02:08:45;16.03;;;5.10;;
14209;SDS011;7188;56.070;12.698;2023-05-25T02:11:11;14.87;;;4.43;;
14209;SDS011;7188;56.070;12.698;2023-05-25T02:13:38;12.17;;;4.23;;
14209;SDS011;7188;56.070;12.698;2023-05-25T02:16:04;15.97;;;4.30;;
14209;SDS011;7188;56.070;12.698;2023-05-25T02:18:30;14.23;;;4.53;;
14209;SDS011;7188;56.070;12.698;2023-05-25T02:20:56;17.13;;;4.83;;
14209;SDS011;7188;56.070;12.698;2023-05-25T02:23:22;13.87;;;4.43;;
14209;SDS011;7188;56.070;12.698;2023-05-25T02:25:47;14.53;;;4.10;;
14209;SDS011;7188;56.070;12.698;2023-05-25T02:28:15;14.13;;;4.23;;
14209;SDS011;7188;56.070;12.698;2023-05-25T02:30:41;17.37;;;4.63;;
14209;SDS011;7188;56.070;12.698;2023-05-25T02:33:07;14.50;;;3.90;;
14209;SDS011;7188;56.070;12.698;2023-05-25T02:35:33;14.87;;;4.37;;
14209;SDS011;7188;56.070;12.698;2023-05-25T02:37:58;15.60;;;4.80;;
14209;SDS011;7188;56.070;12.698;2023-05-25T02:40:24;16.97;;;4.53;;
14209;SDS011;7188;56.070;12.698;2023-05-25T02:42:50;21.43;;;4.87;;
14209;SDS011;7188;56.070;12.698;2023-05-25T02:45:16;19.53;;;5.23;;
14209;SDS011;7188;56.070;12.698;2023-05-25T02:47:42;15.53;;;4.60;;
14209;SDS011;7188;56.070;12.698;2023-05-25T02:50:07;21.67;;;5.17;;
14209;SDS011;7188;56.070;12.698;2023-05-25T02:52:33;17.10;;;4.53;;
14209;SDS011;7188;56.070;12.698;2023-05-25T02:54:59;17.17;;;4.47;;
14209;SDS011;7188;56.070;12.698;2023-05-25T02:57:25;17.67;;;5.00;;
14209;SDS011;7188;56.070;12.698;2023-05-25T02:59:51;15.87;;;3.93;;
14209;SDS011;7188;56.070;12.698;2023-05-25T03:02:16;13.10;;;4.20;;
14209;SDS011;7188;56.070;12.698;2023-05-25T03:04:45;19.03;;;4.57;;
14209;SDS011;7188;56.070;12.698;2023-05-25T03:07:13;16.73;;;4.73;;
14209;SDS011;7188;56.070;12.698;2023-05-25T03:09:39;17.97;;;4.33;;
14209;SDS011;7188;56.070;12.698;2023-05-25T03:12:05;12.27;;;4.43;;
14209;SDS011;7188;56.070;12.698;2023-05-25T03:14:31;16.73;;;4.63;;
14209;SDS011;7188;56.070;12.698;2023-05-25T03:16:56;16.90;;;4.70;;
14209;SDS011;7188;56.070;12.698;2023-05-25T03:19:22;18.80;;;5.00;;
14209;SDS011;7188;56.070;12.698;2023-05-25T03:21:48;25.73;;;5.90;;
14209;SDS011;7188;56.070;12.698;2023-05-25T03:24:13;17.83;;;4.50;;
14209;SDS011;7188;56.070;12.698;2023-05-25T03:26:39;16.17;;;4.30;;
14209;SDS011;7188;56.070;12.698;2023-05-25T03:29:05;16.00;;;4.63;;
14209;SDS011;7188;56.070;12.698;2023-05-25T03:31:31;20.40;;;4.83;;
14209;SDS011;7188;56.070;12.698;2023-05-25T03:33:57;23.87;;;5.43;;
14209;SDS011;7188;56.070;12.698;2023-05-25T03:36:22;16.30;;;4.50;;
14209;SDS011;7188;56.070;12.698;2023-05-25T03:38:51;22.60;;;5.87;;
14209;SDS011;7188;56.070;12.698;2023-05-25T03:41:18;20.77;;;5.63;;
14209;SDS011;7188;56.070;12.698;2023-05-25T03:43:43;22.27;;;5.30;;
14209;SDS011;7188;56.070;12.698;2023-05-25T03:46:09;22.57;;;5.63;;
14209;SDS011;7188;56.070;12.698;2023-05-25T03:48:35;22.53;;;5.03;;
14209;SDS011;7188;56.070;12.698;2023-05-25T03:51:01;22.43;;;5.83;;
14209;SDS011;7188;56.070;12.698;2023-05-25T03:53:27;17.77;;;5.87;;
14209;SDS011;7188;56.070;12.698;2023-05-25T03:55:53;20.57;;;5.07;;
14209;SDS011;7188;56.070;12.698;2023-05-25T03:58:19;23.80;;;6.10;;
14209;SDS011;7188;56.070;12.698;2023-05-25T04:00:44;16.80;;;5.07;;
14209;SDS011;7188;56.070;12.698;2023-05-25T04:03:13;21.70;;;5.07;;
14209;SDS011;7188;56.070;12.698;2023-05-25T04:05:38;21.73;;;4.90;;
14209;SDS011;7188;56.070;12.698;2023-05-25T04:08:06;22.43;;;5.67;;
14209;SDS011;7188;56.070;12.698;2023-05-25T04:10:35;16.43;;;4.97;;
14209;SDS011;7188;56.070;12.698;2023-05-25T04:13:00;21.33;;;4.87;;
14209;SDS011;7188;56.070;12.698;2023-05-25T04:15:26;20.00;;;5.07;;
14209;SDS011;7188;56.070;12.698;2023-05-25T04:17:52;25.13;;;6.23;;
14209;SDS011;7188;56.070;12.698;2023-05-25T04:20:19;23.63;;;5.20;;
14209;SDS011;7188;56.070;12.698;2023-05-25T04:22:44;25.13;;;5.60;;
14209;SDS011;7188;56.070;12.698;2023-05-25T04:25:10;23.47;;;6.23;;
14209;SDS011;7188;56.070;12.698;2023-05-25T04:27:35;25.73;;;6.63;;
14209;SDS011;7188;56.070;12.698;2023-05-25T04:30:02;23.80;;;6.00;;
14209;SDS011;7188;56.070;12.698;2023-05-25T04:32:28;29.63;;;5.90;;
14209;SDS011;7188;56.070;12.698;2023-05-25T04:34:55;21.10;;;5.67;;
14209;SDS011;7188;56.070;12.698;2023-05-25T04:37:22;22.87;;;5.33;;
14209;SDS011;7188;56.070;12.698;2023-05-25T04:39:51;24.60;;;5.83;;
14209;SDS011;7188;56.070;12.698;2023-05-25T04:42:17;24.80;;;5.83;;
14209;SDS011;7188;56.070;12.698;2023-05-25T04:44:43;21.67;;;5.60;;
14209;SDS011;7188;56.070;12.698;2023-05-25T04:47:09;19.83;;;5.50;;
14209;SDS011;7188;56.070;12.698;2023-05-25T04:49:36;25.83;;;5.53;;
14209;SDS011;7188;56.070;12.698;2023-05-25T04:52:02;28.70;;;6.73;;
14209;SDS011;7188;56.070;12.698;2023-05-25T04:54:28;27.30;;;6.10;;
14209;SDS011;7188;56.070;12.698;2023-05-25T04:56:54;20.90;;;5.93;;
14209;SDS011;7188;56.070;12.698;2023-05-25T04:59:19;25.03;;;6.50;;
14209;SDS011;7188;56.070;12.698;2023-05-25T05:01:45;28.53;;;6.70;;
14209;SDS011;7188;56.070;12.698;2023-05-25T05:04:12;28.63;;;6.57;;
14209;SDS011;7188;56.070;12.698;2023-05-25T05:06:40;28.20;;;6.87;;
14209;SDS011;7188;56.070;12.698;2023-05-25T05:09:06;24.47;;;5.53;;
14209;SDS011;7188;56.070;12.698;2023-05-25T05:11:31;26.23;;;6.50;;
14209;SDS011;7188;56.070;12.698;2023-05-25T05:13:57;28.50;;;7.10;;
14209;SDS011;7188;56.070;12.698;2023-05-25T05:16:23;26.67;;;6.57;;
14209;SDS011;7188;56.070;12.698;2023-05-25T05:18:48;32.30;;;7.53;;
14209;SDS011;7188;56.070;12.698;2023-05-25T05:21:14;28.97;;;6.30;;
14209;SDS011;7188;56.070;12.698;2023-05-25T05:23:43;32.27;;;6.03;;
14209;SDS011;7188;56.070;12.698;2023-05-25T05:26:09;24.80;;;5.90;;
14209;SDS011;7188;56.070;12.698;2023-05-25T05:28:36;26.53;;;5.70;;
14209;SDS011;7188;56.070;12.698;2023-05-25T05:31:01;25.13;;;5.77;;
14209;SDS011;7188;56.070;12.698;2023-05-25T05:33:27;28.90;;;5.67;;
14209;SDS011;7188;56.070;12.698;2023-05-25T05:35:53;31.77;;;6.40;;
14209;SDS011;7188;56.070;12.698;2023-05-25T05:38:18;22.97;;;6.53;;
14209;SDS011;7188;56.070;12.698;2023-05-25T05:40:44;27.60;;;5.70;;
14209;SDS011;7188;56.070;12.698;2023-05-25T05:43:10;24.80;;;5.80;;
14209;SDS011;7188;56.070;12.698;2023-05-25T05:45:37;14.93;;;4.30;;
14209;SDS011;7188;56.070;12.698;2023-05-25T05:48:03;28.37;;;5.90;;
14209;SDS011;7188;56.070;12.698;2023-05-25T05:50:30;32.27;;;7.03;;
14209;SDS011;7188;56.070;12.698;2023-05-25T05:52:56;27.77;;;6.43;;
14209;SDS011;7188;56.070;12.698;2023-05-25T05:55:22;24.47;;;4.77;;
14209;SDS011;7188;56.070;12.698;2023-05-25T05:57:47;15.90;;;4.70;;
14209;SDS011;7188;56.070;12.698;2023-05-25T06:00:13;25.33;;;5.27;;
14209;SDS011;7188;56.070;12.698;2023-05-25T06:02:40;26.90;;;5.53;;
14209;SDS011;7188;56.070;12.698;2023-05-25T06:05:06;21.87;;;5.27;;
14209;SDS011;7188;56.070;12.698;2023-05-25T06:07:32;26.50;;;5.53;;
14209;SDS011;7188;56.070;12.698;2023-05-25T06:09:59;23.27;;;5.53;;
14209;SDS011;7188;56.070;12.698;2023-05-25T06:12:25;25.67;;;5.63;;
14209;SDS011;7188;56.070;12.698;2023-05-25T06:14:51;19.27;;;5.07;;
14209;SDS011;7188;56.070;12.698;2023-05-25T06:17:17;19.90;;;5.20;;
14209;SDS011;7188;56.070;12.698;2023-05-25T06:19:43;20.97;;;4.30;;
14209;SDS011;7188;56.070;12.698;2023-05-25T06:22:09;18.43;;;5.03;;
14209;SDS011;7188;56.070;12.698;2023-05-25T06:24:35;19.27;;;4.93;;
14209;SDS011;7188;56.070;12.698;2023-05-25T06:27:00;15.20;;;4.83;;
14209;SDS011;7188;56.070;12.698;2023-05-25T06:29:27;20.73;;;4.83;;
14209;SDS011;7188;56.070;12.698;2023-05-25T06:31:53;18.07;;;4.57;;
14209;SDS011;7188;56.070;12.698;2023-05-25T06:34:19;21.80;;;4.67;;
14209;SDS011;7188;56.070;12.698;2023-05-25T06:36:44;11.60;;;4.07;;
14209;SDS011;7188;56.070;12.698;2023-05-25T06:39:11;15.40;;;3.77;;
14209;SDS011;7188;56.070;12.698;2023-05-25T06:41:37;17.13;;;4.07;;
14209;SDS011;7188;56.070;12.698;2023-05-25T06:44:04;12.00;;;3.57;;
14209;SDS011;7188;56.070;12.698;2023-05-25T06:46:30;18.07;;;4.97;;
14209;SDS011;7188;56.070;12.698;2023-05-25T06:49:00;14.73;;;3.83;;
14209;SDS011;7188;56.070;12.698;2023-05-25T06:51:26;17.07;;;3.90;;
14209;SDS011;7188;56.070;12.698;2023-05-25T06:53:55;16.13;;;3.20;;
14209;SDS011;7188;56.070;12.698;2023-05-25T06:56:21;12.77;;;3.87;;
14209;SDS011;7188;56.070;12.698;2023-05-25T06:58:47;17.50;;;4.90;;
14209;SDS011;7188;56.070;12.698;2023-05-25T07:01:14;13.23;;;3.90;;
14209;SDS011;7188;56.070;12.698;2023-05-25T07:03:40;12.43;;;3.70;;
14209;SDS011;7188;56.070;12.698;2023-05-25T07:06:06;12.50;;;3.43;;
14209;SDS011;7188;56.070;12.698;2023-05-25T07:08:32;15.03;;;4.17;;
14209;SDS011;7188;56.070;12.698;2023-05-25T07:10:57;17.27;;;3.33;;
14209;SDS011;7188;56.070;12.698;2023-05-25T07:13:23;14.83;;;4.03;;
14209;SDS011;7188;56.070;12.698;2023-05-25T07:15:52;15.57;;;3.87;;
14209;SDS011;7188;56.070;12.698;2023-05-25T07:18:17;19.37;;;4.80;;
14209;SDS011;7188;56.070;12.698;2023-05-25T07:20:43;16.20;;;4.23;;
14209;SDS011;7188;56.070;12.698;2023-05-25T07:23:12;13.83;;;2.93;;
14209;SDS011;7188;56.070;12.698;2023-05-25T07:25:38;14.13;;;4.17;;
14209;SDS011;7188;56.070;12.698;2023-05-25T07:28:06;11.97;;;3.00;;
14209;SDS011;7188;56.070;12.698;2023-05-25T07:30:32;10.93;;;2.87;;
14209;SDS011;7188;56.070;12.698;2023-05-25T07:32:59;12.17;;;3.63;;
14209;SDS011;7188;56.070;12.698;2023-05-25T07:35:25;12.23;;;2.63;;
14209;SDS011;7188;56.070;12.698;2023-05-25T07:38:00;11.30;;;2.43;;
14209;SDS011;7188;56.070;12.698;2023-05-25T07:40:28;14.17;;;2.80;;
14209;SDS011;7188;56.070;12.698;2023-05-25T07:42:54;15.47;;;3.77;;
14209;SDS011;7188;56.070;12.698;2023-05-25T07:45:20;13.57;;;3.43;;
14209;SDS011;7188;56.070;12.698;2023-05-25T07:47:46;15.63;;;3.63;;
14209;SDS011;7188;56.070;12.698;2023-05-25T07:50:12;14.17;;;3.27;;
14209;SDS011;7188;56.070;12.698;2023-05-25T07:52:40;11.53;;;3.37;;
14209;SDS011;7188;56.070;12.698;2023-05-25T07:55:06;14.37;;;3.60;;
14209;SDS011;7188;56.070;12.698;2023-05-25T07:57:32;16.57;;;3.80;;
14209;SDS011;7188;56.070;12.698;2023-05-25T07:59:58;12.33;;;3.37;;
14209;SDS011;7188;56.070;12.698;2023-05-25T08:02:24;15.80;;;3.90;;
14209;SDS011;7188;56.070;12.698;2023-05-25T08:04:50;14.30;;;3.70;;
14209;SDS011;7188;56.070;12.698;2023-05-25T08:07:19;15.80;;;3.43;;
14209;SDS011;7188;56.070;12.698;2023-05-25T08:09:45;15.20;;;3.73;;
14209;SDS011;7188;56.070;12.698;2023-05-25T08:12:11;19.50;;;4.00;;
14209;SDS011;7188;56.070;12.698;2023-05-25T08:14:37;18.77;;;4.67;;
14209;SDS011;7188;56.070;12.698;2023-05-25T08:17:03;14.03;;;4.13;;
14209;SDS011;7188;56.070;12.698;2023-05-25T08:19:29;14.10;;;4.13;;
14209;SDS011;7188;56.070;12.698;2023-05-25T08:21:56;12.00;;;3.97;;
14209;SDS011;7188;56.070;12.698;2023-05-25T08:24:22;11.77;;;3.60;;
14209;SDS011;7188;56.070;12.698;2023-05-25T08:26:48;15.40;;;3.37;;
14209;SDS011;7188;56.070;12.698;2023-05-25T08:29:13;19.27;;;4.10;;
14209;SDS011;7188;56.070;12.698;2023-05-25T08:31:39;13.87;;;3.90;;
14209;SDS011;7188;56.070;12.698;2023-05-25T08:34:11;17.63;;;4.50;;
14209;SDS011;7188;56.070;12.698;2023-05-25T08:36:36;13.27;;;4.47;;
14209;SDS011;7188;56.070;12.698;2023-05-25T08:39:02;9.73;;;2.97;;
14209;SDS011;7188;56.070;12.698;2023-05-25T08:41:28;13.73;;;3.13;;
14209;SDS011;7188;56.070;12.698;2023-05-25T08:43:54;14.40;;;3.43;;
14209;SDS011;7188;56.070;12.698;2023-05-25T08:46:27;15.30;;;3.20;;
14209;SDS011;7188;56.070;12.698;2023-05-25T08:48:57;11.13;;;3.53;;
14209;SDS011;7188;56.070;12.698;2023-05-25T08:51:28;10.93;;;3.10;;
14209;SDS011;7188;56.070;12.698;2023-05-25T08:54:00;10.00;;;2.50;;
14209;SDS011;7188;56.070;12.698;2023-05-25T08:56:36;13.47;;;3.23;;
14209;SDS011;7188;56.070;12.698;2023-05-25T09:01:53;14.60;;;3.13;;
14209;SDS011;7188;56.070;12.698;2023-05-25T09:04:26;11.07;;;3.33;;
14209;SDS011;7188;56.070;12.698;2023-05-25T09:06:53;14.13;;;2.90;;
14209;SDS011;7188;56.070;12.698;2023-05-25T09:09:20;14.87;;;3.23;;
14209;SDS011;7188;56.070;12.698;2023-05-25T09:11:46;9.23;;;3.07;;
14209;SDS011;7188;56.070;12.698;2023-05-25T09:14:12;12.30;;;3.73;;
14209;SDS011;7188;56.070;12.698;2023-05-25T09:16:38;13.30;;;3.37;;
14209;SDS011;7188;56.070;12.698;2023-05-25T09:19:04;10.80;;;2.63;;
14209;SDS011;7188;56.070;12.698;2023-05-25T09:21:30;12.40;;;3.23;;
14209;SDS011;7188;56.070;12.698;2023-05-25T09:23:56;10.47;;;2.80;;
14209;SDS011;7188;56.070;12.698;2023-05-25T09:26:24;13.67;;;3.03;;
14209;SDS011;7188;56.070;12.698;2023-05-25T09:28:50;4.77;;;2.30;;
14209;SDS011;7188;56.070;12.698;2023-05-25T09:31:16;6.03;;;2.40;;
14209;SDS011;7188;56.070;12.698;2023-05-25T09:33:46;11.53;;;3.23;;
14209;SDS011;7188;56.070;12.698;2023-05-25T09:36:11;12.13;;;2.73;;
14209;SDS011;7188;56.070;12.698;2023-05-25T09:38:39;12.80;;;3.03;;
14209;SDS011;7188;56.070;12.698;2023-05-25T09:41:05;14.97;;;2.53;;
14209;SDS011;7188;56.070;12.698;2023-05-25T09:43:31;11.20;;;2.57;;
14209;SDS011;7188;56.070;12.698;2023-05-25T09:45:57;10.50;;;2.57;;
14209;SDS011;7188;56.070;12.698;2023-05-25T09:48:23;10.03;;;2.70;;
14209;SDS011;7188;56.070;12.698;2023-05-25T09:50:50;8.07;;;2.30;;
14209;SDS011;7188;56.070;12.698;2023-05-25T09:53:16;7.93;;;2.87;;
14209;SDS011;7188;56.070;12.698;2023-05-25T09:55:42;9.57;;;2.70;;
14209;SDS011;7188;56.070;12.698;2023-05-25T09:58:08;11.20;;;3.23;;
14209;SDS011;7188;56.070;12.698;2023-05-25T10:00:37;16.33;;;3.67;;
14209;SDS011;7188;56.070;12.698;2023-05-25T10:03:02;10.13;;;2.70;;
14209;SDS011;7188;56.070;12.698;2023-05-25T10:05:28;7.23;;;2.73;;
14209;SDS011;7188;56.070;12.698;2023-05-25T10:07:54;9.67;;;2.80;;
14209;SDS011;7188;56.070;12.698;2023-05-25T10:10:20;12.97;;;3.50;;
14209;SDS011;7188;56.070;12.698;2023-05-25T10:12:46;12.50;;;2.57;;
14209;SDS011;7188;56.070;12.698;2023-05-25T10:15:16;13.57;;;3.33;;
14209;SDS011;7188;56.070;12.698;2023-05-25T10:17:54;16.27;;;3.53;;
14209;SDS011;7188;56.070;12.698;2023-05-25T10:20:23;13.07;;;2.63;;
14209;SDS011;7188;56.070;12.698;2023-05-25T10:22:57;8.97;;;2.47;;
14209;SDS011;7188;56.070;12.698;2023-05-25T10:25:33;14.83;;;3.27;;
14209;SDS011;7188;56.070;12.698;2023-05-25T10:28:08;13.67;;;3.43;;
14209;SDS011;7188;56.070;12.698;2023-05-25T10:30:51;12.93;;;3.20;;
14209;SDS011;7188;56.070;12.698;2023-05-25T10:33:19;13.97;;;3.00;;
14209;SDS011;7188;56.070;12.698;2023-05-25T10:35:45;13.70;;;3.77;;
14209;SDS011;7188;56.070;12.698;2023-05-25T10:38:13;10.27;;;2.70;;
14209;SDS011;7188;56.070;12.698;2023-05-25T10:40:41;12.87;;;2.97;;
14209;SDS011;7188;56.070;12.698;2023-05-25T10:43:12;14.83;;;3.20;;
14209;SDS011;7188;56.070;12.698;2023-05-25T10:45:39;11.20;;;3.40;;
14209;SDS011;7188;56.070;12.698;2023-05-25T10:48:06;16.03;;;3.33;;
14209;SDS011;7188;56.070;12.698;2023-05-25T10:50:36;12.07;;;2.97;;
14209;SDS011;7188;56.070;12.698;2023-05-25T10:53:05;11.50;;;3.33;;
14209;SDS011;7188;56.070;12.698;2023-05-25T10:55:48;12.47;;;2.80;;
14209;SDS011;7188;56.070;12.698;2023-05-25T10:58:14;9.73;;;2.27;;
14209;SDS011;7188;56.070;12.698;2023-05-25T11:00:41;12.30;;;2.90;;
14209;SDS011;7188;56.070;12.698;2023-05-25T11:03:07;13.20;;;3.67;;
14209;SDS011;7188;56.070;12.698;2023-05-25T11:08:04;13.00;;;3.37;;
14209;SDS011;7188;56.070;12.698;2023-05-25T11:13:20;11.90;;;2.83;;
14209;SDS011;7188;56.070;12.698;2023-05-25T11:18:41;11.83;;;3.30;;
14209;SDS011;7188;56.070;12.698;2023-05-25T11:21:14;10.87;;;3.57;;
14209;SDS011;7188;56.070;12.698;2023-05-25T11:24:21;7.17;;;2.70;;
14209;SDS011;7188;56.070;12.698;2023-05-25T11:26:54;14.93;;;3.93;;
14209;SDS011;7188;56.070;12.698;2023-05-25T11:29:21;17.07;;;3.83;;
14209;SDS011;7188;56.070;12.698;2023-05-25T11:31:53;16.00;;;4.07;;
14209;SDS011;7188;56.070;12.698;2023-05-25T11:34:20;16.40;;;3.37;;
14209;SDS011;7188;56.070;12.698;2023-05-25T11:36:59;13.37;;;3.43;;
14209;SDS011;7188;56.070;12.698;2023-05-25T11:39:28;13.80;;;3.27;;
14209;SDS011;7188;56.070;12.698;2023-05-25T11:41:54;16.97;;;3.87;;
14209;SDS011;7188;56.070;12.698;2023-05-25T11:44:28;13.67;;;3.40;;
14209;SDS011;7188;56.070;12.698;2023-05-25T11:47:02;13.47;;;3.43;;
14209;SDS011;7188;56.070;12.698;2023-05-25T11:49:32;14.90;;;3.77;;
14209;SDS011;7188;56.070;12.698;2023-05-25T11:51:58;14.93;;;3.83;;
14209;SDS011;7188;56.070;12.698;2023-05-25T11:54:31;12.57;;;2.67;;
14209;SDS011;7188;56.070;12.698;2023-05-25T11:56:57;9.67;;;2.30;;
14209;SDS011;7188;56.070;12.698;2023-05-25T11:59:27;12.70;;;2.97;;
14209;SDS011;7188;56.070;12.698;2023-05-25T12:01:54;14.83;;;2.93;;
14209;SDS011;7188;56.070;12.698;2023-05-25T12:04:24;15.70;;;3.53;;
14209;SDS011;7188;56.070;12.698;2023-05-25T12:06:50;13.03;;;3.23;;
14209;SDS011;7188;56.070;12.698;2023-05-25T12:09:19;14.20;;;3.90;;
14209;SDS011;7188;56.070;12.698;2023-05-25T12:11:46;14.10;;;3.37;;
14209;SDS011;7188;56.070;12.698;2023-05-25T12:14:12;16.50;;;3.93;;
14209;SDS011;7188;56.070;12.698;2023-05-25T12:16:38;14.33;;;2.70;;
14209;SDS011;7188;56.070;12.698;2023-05-25T12:19:08;11.40;;;3.30;;
14209;SDS011;7188;56.070;12.698;2023-05-25T12:21:36;13.63;;;3.57;;
14209;SDS011;7188;56.070;12.698;2023-05-25T12:24:05;18.50;;;3.73;;
14209;SDS011;7188;56.070;12.698;2023-05-25T12:26:32;15.83;;;3.30;;
14209;SDS011;7188;56.070;12.698;2023-05-25T12:34:09;12.13;;;3.40;;
14209;SDS011;7188;56.070;12.698;2023-05-25T12:36:39;15.93;;;3.37;;
14209;SDS011;7188;56.070;12.698;2023-05-25T12:39:09;15.90;;;5.43;;
14209;SDS011;7188;56.070;12.698;2023-05-25T12:41:46;15.73;;;3.83;;
14209;SDS011;7188;56.070;12.698;2023-05-25T12:46:42;18.00;;;4.47;;
14209;SDS011;7188;56.070;12.698;2023-05-25T12:49:23;17.03;;;3.80;;
14209;SDS011;7188;56.070;12.698;2023-05-25T12:51:54;14.90;;;3.70;;
14209;SDS011;7188;56.070;12.698;2023-05-25T12:57:06;21.67;;;3.80;;
14209;SDS011;7188;56.070;12.698;2023-05-25T12:59:33;18.73;;;4.87;;
14209;SDS011;7188;56.070;12.698;2023-05-25T13:02:00;14.17;;;4.27;;
14209;SDS011;7188;56.070;12.698;2023-05-25T13:04:26;14.57;;;3.00;;
14209;SDS011;7188;56.070;12.698;2023-05-25T13:06:52;15.63;;;4.07;;
14209;SDS011;7188;56.070;12.698;2023-05-25T13:09:21;18.47;;;3.90;;
14209;SDS011;7188;56.070;12.698;2023-05-25T13:11:48;19.93;;;3.90;;
14209;SDS011;7188;56.070;12.698;2023-05-25T13:14:14;16.10;;;3.17;;
14209;SDS011;7188;56.070;12.698;2023-05-25T13:16:40;15.13;;;3.73;;
14209;SDS011;7188;56.070;12.698;2023-05-25T13:19:05;17.43;;;3.93;;
14209;SDS011;7188;56.070;12.698;2023-05-25T13:21:31;12.00;;;3.50;;
14209;SDS011;7188;56.070;12.698;2023-05-25T13:23:57;19.80;;;3.57;;
14209;SDS011;7188;56.070;12.698;2023-05-25T13:26:22;18.17;;;4.40;;
14209;SDS011;7188;56.070;12.698;2023-05-25T13:28:49;14.40;;;3.53;;
14209;SDS011;7188;56.070;12.698;2023-05-25T13:31:15;18.03;;;3.50;;
14209;SDS011;7188;56.070;12.698;2023-05-25T13:33:40;12.47;;;3.20;;
14209;SDS011;7188;56.070;12.698;2023-05-25T13:36:06;16.43;;;4.10;;
14209;SDS011;7188;56.070;12.698;2023-05-25T13:38:35;17.90;;;3.53;;
14209;SDS011;7188;56.070;12.698;2023-05-25T13:41:02;15.50;;;3.97;;
14209;SDS011;7188;56.070;12.698;2023-05-25T13:43:28;18.37;;;3.97;;
14209;SDS011;7188;56.070;12.698;2023-05-25T13:45:54;16.43;;;3.97;;
14209;SDS011;7188;56.070;12.698;2023-05-25T13:48:20;13.97;;;4.30;;
14209;SDS011;7188;56.070;12.698;2023-05-25T13:50:46;11.80;;;3.90;;
14209;SDS011;7188;56.070;12.698;2023-05-25T13:53:13;12.93;;;3.50;;
14209;SDS011;7188;56.070;12.698;2023-05-25T13:55:38;13.03;;;3.50;;
14209;SDS011;7188;56.070;12.698;2023-05-25T13:58:05;19.70;;;4.20;;
14209;SDS011;7188;56.070;12.698;2023-05-25T14:00:31;16.93;;;3.97;;
14209;SDS011;7188;56.070;12.698;2023-05-25T14:02:57;19.77;;;4.03;;
14209;SDS011;7188;56.070;12.698;2023-05-25T14:05:23;13.03;;;3.27;;
14209;SDS011;7188;56.070;12.698;2023-05-25T14:07:49;18.30;;;3.67;;
14209;SDS011;7188;56.070;12.698;2023-05-25T14:10:16;15.33;;;3.97;;
14209;SDS011;7188;56.070;12.698;2023-05-25T14:12:43;17.23;;;3.63;;
14209;SDS011;7188;56.070;12.698;2023-05-25T14:15:09;24.00;;;4.17;;
14209;SDS011;7188;56.070;12.698;2023-05-25T14:17:35;12.10;;;3.27;;
14209;SDS011;7188;56.070;12.698;2023-05-25T14:20:01;14.77;;;3.43;;
14209;SDS011;7188;56.070;12.698;2023-05-25T14:22:28;15.07;;;3.63;;
14209;SDS011;7188;56.070;12.698;2023-05-25T14:24:54;14.17;;;3.07;;
14209;SDS011;7188;56.070;12.698;2023-05-25T14:27:20;14.77;;;3.50;;
14209;SDS011;7188;56.070;12.698;2023-05-25T14:29:46;15.47;;;4.93;;
14209;SDS011;7188;56.070;12.698;2023-05-25T14:32:13;12.17;;;3.43;;
14209;SDS011;7188;56.070;12.698;2023-05-25T14:34:39;11.87;;;3.03;;
14209;SDS011;7188;56.070;12.698;2023-05-25T14:37:05;16.50;;;4.27;;
14209;SDS011;7188;56.070;12.698;2023-05-25T14:39:31;17.40;;;3.90;;
14209;SDS011;7188;56.070;12.698;2023-05-25T14:41:57;18.17;;;4.00;;
14209;SDS011;7188;56.070;12.698;2023-05-25T14:44:22;18.07;;;3.67;;
14209;SDS011;7188;56.070;12.698;2023-05-25T14:46:48;20.23;;;4.40;;
14209;SDS011;7188;56.070;12.698;2023-05-25T14:49:14;13.73;;;3.73;;
14209;SDS011;7188;56.070;12.698;2023-05-25T14:51:41;15.70;;;3.80;;
14209;SDS011;7188;56.070;12.698;2023-05-25T14:54:06;10.93;;;3.07;;
14209;SDS011;7188;56.070;12.698;2023-05-25T14:56:32;12.20;;;2.93;;
14209;SDS011;7188;56.070;12.698;2023-05-25T14:58:58;14.47;;;4.33;;
14209;SDS011;7188;56.070;12.698;2023-05-25T15:01:24;11.10;;;3.40;;
14209;SDS011;7188;56.070;12.698;2023-05-25T15:03:50;18.43;;;3.30;;
14209;SDS011;7188;56.070;12.698;2023-05-25T15:06:15;12.33;;;3.07;;